createdAt,value
2022-11-10T00:00:25.616Z,39.25
2022-11-10T00:03:13.998Z,37.90
2022-11-10T00:06:04.505Z,38.03
2022-11-10T00:08:51.989Z,34.72
2022-11-10T00:11:40.199Z,33.13
2022-11-10T00:14:46.683Z,29.67
2022-11-10T00:17:34.173Z,27.92
2022-11-10T00:20:21.959Z,28.17
2022-11-10T00:23:09.820Z,28.90
2022-11-10T00:25:57.041Z,28.23
2022-11-10T00:28:45.030Z,26.70
2022-11-10T00:31:32.335Z,27.33
2022-11-10T00:34:19.924Z,24.45
2022-11-10T00:37:07.239Z,25.02
2022-11-10T00:39:54.822Z,24.00
2022-11-10T00:42:42.428Z,20.77
2022-11-10T00:45:30.219Z,19.65
2022-11-10T00:48:17.215Z,19.92
2022-11-10T00:51:05.328Z,21.92
2022-11-10T00:53:53.761Z,22.00
2022-11-10T00:56:41.031Z,24.65
2022-11-10T00:59:28.271Z,24.98
2022-11-10T01:02:19.991Z,26.88
2022-11-10T01:05:10.759Z,26.95
2022-11-10T01:08:05.800Z,24.10
2022-11-10T01:11:03.248Z,22.60
2022-11-10T01:13:57.658Z,23.33
2022-11-10T01:16:47.155Z,22.65
2022-11-10T01:19:35.997Z,26.88
2022-11-10T01:22:24.393Z,23.30
2022-11-10T01:25:12.515Z,20.70
2022-11-10T01:28:00.287Z,23.65
2022-11-10T01:30:49.259Z,26.55
2022-11-10T01:33:37.829Z,27.70
2022-11-10T01:36:26.501Z,28.33
2022-11-10T01:39:14.987Z,27.80
2022-11-10T01:42:03.142Z,28.23
2022-11-10T01:45:24.500Z,30.30
2022-11-10T01:48:18.486Z,28.88
2022-11-10T01:51:25.801Z,30.10
2022-11-10T01:54:20.813Z,28.10
2022-11-10T01:57:12.952Z,26.27
2022-11-10T02:00:01.614Z,22.60
2022-11-10T02:03:19.679Z,25.65
2022-11-10T02:06:10.030Z,34.08
2022-11-10T02:09:00.933Z,30.60
2022-11-10T02:11:53.470Z,26.15
2022-11-10T02:14:41.800Z,26.37
2022-11-10T02:17:29.835Z,25.85
2022-11-10T02:20:21.062Z,21.80
2022-11-10T02:23:36.127Z,24.85
2022-11-10T02:26:32.252Z,26.02
2022-11-10T02:29:21.029Z,29.52
2022-11-10T02:32:09.395Z,80.18
2022-11-10T02:34:57.483Z,23.17
2022-11-10T02:37:45.706Z,36.35
2022-11-10T02:40:33.593Z,23.02
2022-11-10T02:43:22.424Z,24.20
2022-11-10T02:46:10.512Z,30.77
2022-11-10T02:48:59.381Z,22.42
2022-11-10T02:51:47.667Z,26.55
2022-11-10T02:54:36.432Z,20.83
2022-11-10T02:57:24.693Z,21.98
2022-11-10T03:00:13.596Z,19.48
2022-11-10T03:03:03.678Z,19.90
2022-11-10T03:05:52.039Z,17.77
2022-11-10T03:08:41.047Z,16.00
2022-11-10T03:11:32.267Z,15.65
2022-11-10T03:14:20.887Z,15.52
2022-11-10T03:17:09.712Z,16.25
2022-11-10T03:19:58.127Z,15.98
2022-11-10T03:22:46.930Z,12.45
2022-11-10T03:25:36.504Z,12.73
2022-11-10T03:28:24.887Z,13.98
2022-11-10T03:31:13.186Z,14.40
2022-11-10T03:34:01.685Z,11.88
2022-11-10T03:36:49.889Z,13.88
2022-11-10T03:39:38.403Z,13.15
2022-11-10T03:42:26.960Z,13.82
2022-11-10T03:45:16.894Z,11.88
2022-11-10T03:48:05.342Z,10.30
2022-11-10T03:50:53.632Z,11.20
2022-11-10T03:53:41.701Z,13.77
2022-11-10T03:56:30.343Z,11.25
2022-11-10T03:59:18.552Z,11.50
2022-11-10T04:02:09.062Z,10.27
2022-11-10T04:05:15.582Z,9.25
2022-11-10T04:08:21.923Z,12.43
2022-11-10T04:11:10.811Z,11.48
2022-11-10T04:14:16.932Z,11.70
2022-11-10T04:17:06.111Z,12.35
2022-11-10T04:19:53.946Z,12.45
2022-11-10T04:23:00.605Z,9.90
2022-11-10T04:26:08.158Z,11.20
2022-11-10T04:28:59.079Z,11.07
2022-11-10T04:31:47.944Z,10.30
2022-11-10T04:34:36.518Z,10.02
2022-11-10T04:37:24.853Z,11.30
2022-11-10T04:40:16.196Z,10.45
2022-11-10T04:43:03.876Z,8.57
2022-11-10T04:45:52.362Z,9.65
2022-11-10T04:48:45.295Z,10.27
2022-11-10T04:51:36.296Z,9.93
2022-11-10T04:54:24.683Z,10.27
2022-11-10T04:57:13.524Z,13.23
2022-11-10T05:00:02.300Z,11.07
2022-11-10T05:02:50.324Z,12.05
2022-11-10T05:05:38.564Z,12.10
2022-11-10T05:08:26.523Z,10.95
2022-11-10T05:11:15.795Z,9.43
2022-11-10T05:14:03.590Z,11.55
2022-11-10T05:16:51.190Z,9.70
2022-11-10T05:19:39.535Z,10.88
2022-11-10T05:22:28.123Z,8.50
2022-11-10T05:25:16.058Z,8.27
2022-11-10T05:28:05.262Z,8.77
2022-11-10T05:30:54.300Z,7.85
2022-11-10T05:33:42.750Z,7.28
2022-11-10T05:36:30.993Z,9.05
2022-11-10T05:39:19.280Z,9.15
2022-11-10T05:42:07.736Z,8.85
2022-11-10T05:44:55.857Z,8.77
2022-11-10T05:47:44.989Z,9.93
2022-11-10T05:50:33.007Z,9.60
2022-11-10T05:53:22.272Z,10.18
2022-11-10T05:56:10.658Z,8.95
2022-11-10T05:58:59.445Z,10.23
2022-11-10T06:01:48.769Z,7.40
2022-11-10T06:04:36.763Z,8.00
2022-11-10T06:07:24.627Z,7.85
2022-11-10T06:10:12.851Z,7.22
2022-11-10T06:13:01.086Z,8.45
2022-11-10T06:15:50.709Z,8.23
2022-11-10T06:18:39.802Z,7.07
2022-11-10T06:21:28.796Z,7.43
2022-11-10T06:24:17.061Z,7.47
2022-11-10T06:27:05.093Z,7.28
2022-11-10T06:29:53.426Z,6.05
2022-11-10T06:32:46.074Z,7.47
2022-11-10T06:35:38.199Z,8.27
2022-11-10T06:38:26.755Z,6.97
2022-11-10T06:41:15.130Z,8.07
2022-11-10T06:44:03.554Z,8.30
2022-11-10T06:46:51.892Z,9.05
2022-11-10T06:49:43.020Z,8.48
2022-11-10T06:52:32.831Z,9.68
2022-11-10T06:55:20.799Z,9.48
2022-11-10T06:58:08.642Z,10.00
2022-11-10T07:00:56.660Z,10.73
2022-11-10T07:04:05.098Z,9.95
2022-11-10T07:06:52.031Z,11.77
2022-11-10T07:09:39.932Z,9.57
2022-11-10T07:12:27.726Z,9.48
2022-11-10T07:15:15.921Z,9.35
2022-11-10T07:18:04.908Z,8.20
2022-11-10T07:20:52.332Z,8.20
2022-11-10T07:23:40.236Z,9.10
2022-11-10T07:26:28.493Z,8.50
2022-11-10T07:29:16.004Z,8.40
2022-11-10T07:32:03.794Z,9.13
2022-11-10T07:34:51.565Z,8.48
2022-11-10T07:37:38.954Z,8.25
2022-11-10T07:40:27.106Z,9.65
2022-11-10T07:43:15.864Z,9.68
2022-11-10T07:46:04.409Z,10.40
2022-11-10T07:48:51.783Z,11.07
2022-11-10T07:51:45.037Z,9.10
2022-11-10T07:54:32.854Z,10.00
2022-11-10T07:57:21.022Z,9.65
2022-11-10T08:00:08.926Z,11.20
2022-11-10T08:03:02.504Z,10.35
2022-11-10T08:05:50.494Z,11.07
2022-11-10T08:08:38.838Z,11.70
2022-11-10T08:11:26.227Z,10.68
2022-11-10T08:14:14.110Z,9.88
2022-11-10T08:17:01.970Z,10.18
2022-11-10T08:19:49.788Z,11.50
2022-11-10T08:22:37.381Z,10.63
2022-11-10T08:25:26.380Z,10.85
2022-11-10T08:28:24.605Z,10.38
2022-11-10T08:31:12.227Z,11.50
2022-11-10T08:33:59.963Z,10.95
2022-11-10T08:36:47.541Z,10.35
2022-11-10T08:39:39.550Z,11.50
2022-11-10T08:42:28.366Z,13.15
2022-11-10T08:45:17.029Z,13.07
2022-11-10T08:48:08.539Z,14.75
2022-11-10T08:50:55.904Z,19.88
2022-11-10T08:53:43.780Z,17.10
2022-11-10T08:56:32.387Z,15.18
2022-11-10T08:59:19.721Z,16.45
2022-11-10T09:02:07.893Z,13.00
2022-11-10T09:04:55.390Z,13.93
2022-11-10T09:07:48.507Z,13.77
2022-11-10T09:10:39.087Z,12.48
2022-11-10T09:13:30.285Z,15.40
2022-11-10T09:16:18.397Z,15.85
2022-11-10T09:19:06.347Z,18.75
2022-11-10T09:21:54.438Z,15.93
2022-11-10T09:24:43.191Z,16.20
2022-11-10T09:27:31.416Z,14.57
2022-11-10T09:30:19.747Z,17.48
2022-11-10T09:33:07.393Z,16.83
2022-11-10T09:36:02.921Z,19.02
2022-11-10T09:38:50.532Z,16.50
2022-11-10T09:41:42.665Z,19.23
2022-11-10T09:44:30.365Z,17.52
2022-11-10T09:47:50.581Z,19.02
2022-11-10T09:50:50.233Z,16.77
2022-11-10T09:54:00.266Z,16.05
2022-11-10T09:56:48.458Z,15.48
2022-11-10T09:59:38.250Z,16.55
2022-11-10T10:02:41.208Z,16.58
2022-11-10T10:08:32.784Z,16.58
2022-11-10T10:11:41.126Z,20.25
2022-11-10T10:14:42.346Z,18.98
2022-11-10T10:17:40.812Z,19.33
2022-11-10T10:20:38.086Z,19.98
2022-11-10T10:24:07.162Z,19.45
2022-11-10T10:26:46.923Z,21.40
2022-11-10T10:29:56.788Z,23.38
2022-11-10T10:32:45.315Z,18.23
2022-11-10T10:35:40.570Z,19.58
2022-11-10T10:38:37.882Z,22.63
2022-11-10T10:41:28.508Z,24.83
2022-11-10T10:44:19.512Z,20.95
2022-11-10T10:47:09.993Z,25.38
2022-11-10T10:50:31.671Z,22.10
2022-11-10T10:53:26.366Z,22.60
2022-11-10T10:56:25.986Z,18.92
2022-11-10T10:59:22.923Z,18.80
2022-11-10T11:02:32.228Z,24.50
2022-11-10T11:05:24.270Z,21.98
2022-11-10T11:08:20.707Z,22.33
2022-11-10T11:11:10.660Z,21.08
2022-11-10T11:14:19.723Z,21.15
2022-11-10T11:17:22.681Z,22.25
2022-11-10T11:20:16.686Z,22.70
2022-11-10T11:23:36.349Z,22.55
2022-11-10T11:27:01.795Z,25.20
2022-11-10T11:30:30.211Z,25.60
2022-11-10T11:33:22.837Z,29.38
2022-11-10T11:36:19.449Z,32.20
2022-11-10T11:39:25.425Z,31.02
2022-11-10T11:42:27.704Z,29.70
2022-11-10T11:45:45.191Z,32.95
2022-11-10T11:48:55.045Z,32.53
2022-11-10T11:52:00.270Z,33.80
2022-11-10T11:55:17.082Z,30.92
2022-11-10T11:58:45.399Z,32.65
2022-11-10T12:01:41.915Z,34.63
2022-11-10T12:04:40.259Z,35.13
2022-11-10T12:07:51.849Z,35.78
2022-11-10T12:10:43.246Z,39.00
2022-11-10T12:13:46.360Z,34.10
2022-11-10T12:16:36.572Z,34.43
2022-11-10T12:19:33.172Z,42.00
2022-11-10T12:22:49.054Z,41.67
2022-11-10T12:25:45.922Z,37.17
2022-11-10T12:28:40.358Z,33.22
2022-11-10T12:31:31.552Z,31.30
2022-11-10T12:34:40.059Z,33.78
2022-11-10T12:37:37.289Z,33.92
2022-11-10T12:40:29.516Z,34.42
2022-11-10T12:43:46.123Z,33.67
2022-11-10T12:46:33.561Z,33.05
2022-11-10T12:49:32.878Z,33.65
2022-11-10T12:52:34.947Z,35.47
2022-11-10T12:55:33.751Z,36.28
2022-11-10T12:58:22.212Z,41.40
2022-11-10T13:01:19.821Z,45.70
2022-11-10T13:04:17.656Z,54.38
2022-11-10T13:07:12.907Z,59.63
2022-11-10T13:10:21.441Z,65.35
2022-11-10T13:13:21.343Z,68.18
2022-11-10T13:16:14.465Z,68.93
2022-11-10T13:22:38.618Z,58.67
2022-11-10T13:25:39.273Z,62.25
2022-11-10T13:28:56.636Z,65.05
2022-11-10T13:31:53.276Z,61.33
2022-11-10T13:34:45.566Z,59.00
2022-11-10T13:37:44.311Z,58.45
2022-11-10T13:40:39.244Z,44.83
2022-11-10T13:43:37.864Z,38.17
2022-11-10T13:46:39.642Z,33.22
2022-11-10T13:49:40.912Z,31.83
2022-11-10T13:52:50.650Z,35.15
2022-11-10T13:55:54.801Z,34.97
2022-11-10T13:58:49.696Z,34.65
2022-11-10T14:01:42.270Z,37.35
2022-11-10T14:04:46.219Z,40.33
2022-11-10T14:07:48.040Z,43.92
2022-11-10T14:11:14.992Z,42.78
2022-11-10T14:14:13.834Z,43.47
2022-11-10T14:17:15.772Z,44.88
2022-11-10T14:20:05.128Z,44.47
2022-11-10T14:22:56.799Z,44.78
2022-11-10T14:28:38.707Z,39.15
2022-11-10T14:31:30.333Z,40.60
2022-11-10T14:34:25.859Z,37.92
2022-11-10T14:37:38.577Z,44.00
2022-11-10T14:40:30.308Z,38.85
2022-11-10T14:43:41.178Z,38.00
2022-11-10T14:46:28.827Z,37.47
2022-11-10T14:49:30.872Z,37.85
2022-11-10T14:52:26.031Z,36.50
2022-11-10T14:55:34.471Z,47.38
2022-11-10T14:58:37.590Z,53.72
2022-11-10T15:04:34.453Z,57.20
2022-11-10T15:07:28.955Z,56.03
2022-11-10T15:10:45.466Z,54.13
2022-11-10T15:13:35.628Z,46.22
2022-11-10T15:16:37.551Z,46.97
2022-11-10T15:19:51.963Z,51.95
2022-11-10T15:22:43.714Z,49.35
2022-11-10T15:25:38.464Z,42.83
2022-11-10T15:28:33.896Z,39.40
2022-11-10T15:31:31.423Z,37.83
2022-11-10T15:34:43.292Z,38.90
2022-11-10T15:37:35.092Z,38.53
2022-11-10T15:40:37.778Z,42.53
2022-11-10T15:43:28.425Z,42.67
2022-11-10T15:46:21.417Z,44.45
2022-11-10T15:52:22.166Z,42.92
2022-11-10T15:55:25.483Z,47.58
2022-11-10T15:58:24.538Z,41.78
2022-11-10T16:01:14.438Z,40.53
2022-11-10T16:04:12.203Z,40.88
2022-11-10T16:07:22.241Z,43.30
2022-11-10T16:10:15.510Z,41.22
2022-11-10T16:13:05.087Z,43.72
2022-11-10T16:15:53.444Z,46.20
2022-11-10T16:18:53.263Z,46.95
2022-11-10T16:21:41.131Z,47.15
2022-11-10T16:24:29.060Z,49.33
2022-11-10T16:27:20.379Z,51.55
2022-11-10T16:30:20.935Z,53.90
2022-11-10T16:33:16.286Z,53.88
2022-11-10T16:36:09.842Z,52.42
2022-11-10T16:39:03.293Z,52.08
2022-11-10T16:41:53.013Z,50.10
2022-11-10T16:44:44.318Z,49.42
2022-11-10T16:47:36.798Z,51.72
2022-11-10T16:50:41.514Z,50.17
2022-11-10T16:53:33.450Z,49.10
2022-11-10T16:56:25.621Z,48.08
2022-11-10T16:59:26.225Z,49.58
2022-11-10T17:02:27.531Z,51.42
2022-11-10T17:05:22.343Z,50.33
2022-11-10T17:08:24.639Z,44.78
2022-11-10T17:11:19.453Z,46.00
2022-11-10T17:14:14.646Z,48.50
2022-11-10T17:17:14.339Z,50.30
2022-11-10T17:20:05.306Z,59.25
2022-11-10T17:22:54.969Z,61.45
2022-11-10T17:25:48.128Z,59.60
2022-11-10T17:28:38.903Z,50.35
2022-11-10T17:31:31.053Z,48.08
2022-11-10T17:34:38.803Z,43.53
2022-11-10T17:37:34.376Z,46.50
2022-11-10T17:40:27.842Z,46.13
2022-11-10T17:43:23.502Z,54.20
2022-11-10T17:46:11.602Z,47.83
2022-11-10T17:49:03.232Z,40.20
2022-11-10T17:51:56.410Z,38.85
2022-11-10T17:54:49.113Z,39.53
2022-11-10T17:57:38.733Z,43.90
2022-11-10T18:00:27.585Z,43.17
2022-11-10T18:03:22.667Z,41.53
2022-11-10T18:06:27.457Z,39.70
2022-11-10T18:09:16.795Z,40.95
2022-11-10T18:12:04.914Z,44.05
2022-11-10T18:14:55.099Z,48.40
2022-11-10T18:17:56.162Z,50.22
2022-11-10T18:20:47.658Z,50.47
2022-11-10T18:23:40.505Z,55.13
2022-11-10T18:26:30.884Z,60.75
2022-11-10T18:29:24.433Z,55.75
2022-11-10T18:32:15.559Z,53.38
2022-11-10T18:35:16.602Z,53.72
2022-11-10T18:38:11.285Z,53.55
2022-11-10T18:41:22.337Z,52.90
2022-11-10T18:44:27.469Z,53.88
2022-11-10T18:47:16.233Z,54.37
2022-11-10T18:50:10.022Z,53.05
2022-11-10T18:52:58.788Z,55.17
2022-11-10T18:55:57.238Z,54.33
2022-11-10T18:58:44.648Z,55.45
2022-11-10T19:01:36.513Z,50.80
2022-11-10T19:04:27.205Z,51.20
2022-11-10T19:07:15.510Z,53.03
2022-11-10T19:10:05.177Z,51.78
2022-11-10T19:12:54.354Z,53.10
2022-11-10T19:15:43.343Z,50.25
2022-11-10T19:18:31.929Z,51.67
2022-11-10T19:21:22.369Z,53.72
2022-11-10T19:24:10.390Z,54.33
2022-11-10T19:26:58.016Z,54.72
2022-11-10T19:29:45.969Z,58.58
2022-11-10T19:32:33.597Z,59.45
2022-11-10T19:35:24.618Z,61.22
2022-11-10T19:38:12.160Z,60.88
2022-11-10T19:41:00.703Z,59.83
2022-11-10T19:43:48.094Z,58.38
2022-11-10T19:46:38.227Z,60.28
2022-11-10T19:49:26.090Z,63.58
2022-11-10T19:52:13.315Z,65.60
2022-11-10T19:55:00.542Z,63.70
2022-11-10T19:57:48.004Z,66.32
2022-11-10T20:00:35.627Z,67.85
2022-11-10T20:03:25.414Z,72.20
2022-11-10T20:06:21.052Z,72.20
2022-11-10T20:09:08.863Z,71.28
2022-11-10T20:11:56.444Z,68.45
2022-11-10T20:14:44.071Z,70.68
2022-11-10T20:17:31.790Z,72.10
2022-11-10T20:20:19.910Z,74.82
2022-11-10T20:23:10.055Z,67.97
2022-11-10T20:26:10.478Z,68.68
2022-11-10T20:28:57.848Z,67.07
2022-11-10T20:31:45.770Z,66.15
2022-11-10T20:34:33.442Z,60.22
2022-11-10T20:37:21.321Z,58.03
2022-11-10T20:40:37.787Z,56.65
2022-11-10T20:43:17.165Z,50.50
2022-11-10T20:46:05.034Z,52.35
2022-11-10T20:48:52.647Z,49.88
2022-11-10T20:51:41.294Z,50.38
2022-11-10T20:54:29.024Z,48.83
2022-11-10T20:57:16.548Z,50.42
2022-11-10T21:00:04.321Z,52.90
2022-11-10T21:02:51.369Z,53.67
2022-11-10T21:05:39.544Z,56.50
2022-11-10T21:08:26.788Z,60.38
2022-11-10T21:11:34.013Z,60.75
2022-11-10T21:14:21.354Z,59.90
2022-11-10T21:17:09.026Z,60.97
2022-11-10T21:19:56.765Z,63.55
2022-11-10T21:22:44.348Z,64.80
2022-11-10T21:25:32.276Z,66.50
2022-11-10T21:28:20.173Z,70.72
2022-11-10T21:31:07.887Z,70.15
2022-11-10T21:33:59.314Z,65.47
2022-11-10T21:36:46.881Z,60.58
2022-11-10T21:39:34.607Z,58.85
2022-11-10T21:42:24.439Z,63.53
2022-11-10T21:45:13.245Z,61.47
2022-11-10T21:48:02.461Z,58.13
2022-11-10T21:50:50.099Z,52.85
2022-11-10T21:53:40.247Z,51.30
2022-11-10T21:56:27.586Z,44.55
2022-11-10T21:59:15.307Z,44.00
2022-11-10T22:02:02.950Z,42.08
2022-11-10T22:04:50.502Z,44.40
2022-11-10T22:07:39.817Z,44.25
2022-11-10T22:10:45.394Z,43.60
2022-11-10T22:13:50.914Z,45.00
2022-11-10T22:17:08.261Z,46.15
2022-11-10T22:19:55.946Z,48.80
2022-11-10T22:22:43.506Z,48.60
2022-11-10T22:25:30.776Z,48.70
2022-11-10T22:28:21.340Z,49.90
2022-11-10T22:31:11.866Z,49.95
2022-11-10T22:33:59.169Z,51.78
2022-11-10T22:36:47.498Z,54.88
2022-11-10T22:39:53.854Z,54.55
2022-11-10T22:42:59.899Z,57.35
2022-11-10T22:45:47.555Z,60.35
2022-11-10T22:48:35.193Z,62.80
2022-11-10T22:51:22.963Z,61.13
2022-11-10T22:54:16.293Z,60.45
2022-11-10T22:57:04.056Z,57.67
2022-11-10T22:59:51.418Z,51.67
2022-11-10T23:02:39.017Z,52.28
2022-11-10T23:05:26.503Z,52.25
2022-11-10T23:08:14.154Z,56.50
2022-11-10T23:11:11.824Z,58.55
2022-11-10T23:13:59.819Z,62.80
2022-11-10T23:16:46.834Z,61.70
2022-11-10T23:19:34.421Z,58.55
2022-11-10T23:22:21.434Z,58.45
2022-11-10T23:25:09.579Z,54.35
2022-11-10T23:27:58.136Z,52.97
2022-11-10T23:30:45.494Z,52.72
2022-11-10T23:33:33.336Z,53.80
2022-11-10T23:36:23.092Z,58.60
2022-11-10T23:39:10.748Z,62.88
2022-11-10T23:41:58.583Z,64.95
2022-11-10T23:44:46.104Z,62.05
2022-11-10T23:47:33.979Z,59.70
2022-11-10T23:50:21.199Z,62.25
2022-11-10T23:53:08.781Z,55.33
2022-11-10T23:56:01.081Z,54.60
2022-11-10T23:58:48.826Z,53.43
